sensor_id;sensor_type;location;lat;lon;timestamp;temperature;humidity
16485;DHT22;8353;47.856;12.344;2023-04-24T00:02:31;13.50;99.90
16485;DHT22;8353;47.856;12.344;2023-04-24T00:05:18;13.50;99.90
16485;DHT22;8353;47.856;12.344;2023-04-24T00:08:05;13.50;99.90
16485;DHT22;8353;47.856;12.344;2023-04-24T00:10:52;13.50;99.90
16485;DHT22;8353;47.856;12.344;2023-04-24T00:13:39;13.50;99.90
16485;DHT22;8353;47.856;12.344;2023-04-24T00:16:26;13.60;99.90
16485;DHT22;8353;47.856;12.344;2023-04-24T00:19:14;13.70;99.90
16485;DHT22;8353;47.856;12.344;2023-04-24T00:22:02;13.80;99.90
16485;DHT22;8353;47.856;12.344;2023-04-24T00:24:49;13.80;99.90
16485;DHT22;8353;47.856;12.344;2023-04-24T00:27:35;13.70;99.90
16485;DHT22;8353;47.856;12.344;2023-04-24T00:30:22;13.70;99.90
16485;DHT22;8353;47.856;12.344;2023-04-24T00:33:09;13.70;99.90
16485;DHT22;8353;47.856;12.344;2023-04-24T00:35:57;13.80;99.90
16485;DHT22;8353;47.856;12.344;2023-04-24T00:38:45;13.90;99.90
16485;DHT22;8353;47.856;12.344;2023-04-24T00:41:32;13.90;99.90
16485;DHT22;8353;47.856;12.344;2023-04-24T00:44:20;13.90;99.90
16485;DHT22;8353;47.856;12.344;2023-04-24T00:47:07;13.80;99.90
16485;DHT22;8353;47.856;12.344;2023-04-24T00:49:54;13.70;99.90
16485;DHT22;8353;47.856;12.344;2023-04-24T00:52:43;13.80;99.90
16485;DHT22;8353;47.856;12.344;2023-04-24T00:55:30;13.80;99.90
16485;DHT22;8353;47.856;12.344;2023-04-24T00:58:18;13.70;99.90
16485;DHT22;8353;47.856;12.344;2023-04-24T01:01:05;13.80;99.90
16485;DHT22;8353;47.856;12.344;2023-04-24T01:03:53;13.70;99.90
16485;DHT22;8353;47.856;12.344;2023-04-24T01:06:41;13.80;99.90
16485;DHT22;8353;47.856;12.344;2023-04-24T01:09:31;14.00;99.90
16485;DHT22;8353;47.856;12.344;2023-04-24T01:12:18;14.00;99.90
16485;DHT22;8353;47.856;12.344;2023-04-24T01:15:06;14.10;99.90
16485;DHT22;8353;47.856;12.344;2023-04-24T01:17:53;14.10;99.90
16485;DHT22;8353;47.856;12.344;2023-04-24T01:20:42;14.20;99.90
16485;DHT22;8353;47.856;12.344;2023-04-24T01:23:31;14.30;99.90
16485;DHT22;8353;47.856;12.344;2023-04-24T01:26:18;14.30;99.90
16485;DHT22;8353;47.856;12.344;2023-04-24T01:29:05;14.40;99.90
16485;DHT22;8353;47.856;12.344;2023-04-24T01:31:52;14.50;99.90
16485;DHT22;8353;47.856;12.344;2023-04-24T01:34:40;14.50;99.90
16485;DHT22;8353;47.856;12.344;2023-04-24T01:37:27;14.60;99.90
16485;DHT22;8353;47.856;12.344;2023-04-24T01:40:15;14.60;99.90
16485;DHT22;8353;47.856;12.344;2023-04-24T01:43:02;14.60;99.90
16485;DHT22;8353;47.856;12.344;2023-04-24T01:45:55;14.50;99.90
16485;DHT22;8353;47.856;12.344;2023-04-24T01:48:41;14.50;99.90
16485;DHT22;8353;47.856;12.344;2023-04-24T01:51:28;14.50;99.90
16485;DHT22;8353;47.856;12.344;2023-04-24T01:54:15;14.60;99.90
16485;DHT22;8353;47.856;12.344;2023-04-24T01:57:03;14.60;99.90
16485;DHT22;8353;47.856;12.344;2023-04-24T01:59:51;14.70;99.90
16485;DHT22;8353;47.856;12.344;2023-04-24T02:02:39;14.70;99.90
16485;DHT22;8353;47.856;12.344;2023-04-24T02:05:26;14.60;99.90
16485;DHT22;8353;47.856;12.344;2023-04-24T02:08:13;14.60;99.90
16485;DHT22;8353;47.856;12.344;2023-04-24T02:11:00;14.50;99.90
16485;DHT22;8353;47.856;12.344;2023-04-24T02:13:49;14.50;99.90
16485;DHT22;8353;47.856;12.344;2023-04-24T02:16:37;14.50;99.90
16485;DHT22;8353;47.856;12.344;2023-04-24T02:19:23;14.60;99.90
16485;DHT22;8353;47.856;12.344;2023-04-24T02:22:10;14.60;99.90
16485;DHT22;8353;47.856;12.344;2023-04-24T02:24:57;14.60;99.90
16485;DHT22;8353;47.856;12.344;2023-04-24T02:27:44;14.50;99.90
16485;DHT22;8353;47.856;12.344;2023-04-24T02:30:32;14.40;99.90
16485;DHT22;8353;47.856;12.344;2023-04-24T02:33:19;14.40;99.90
16485;DHT22;8353;47.856;12.344;2023-04-24T02:36:06;14.50;99.90
16485;DHT22;8353;47.856;12.344;2023-04-24T02:38:53;14.40;99.90
16485;DHT22;8353;47.856;12.344;2023-04-24T02:41:40;14.50;99.90
16485;DHT22;8353;47.856;12.344;2023-04-24T02:44:27;14.30;99.90
16485;DHT22;8353;47.856;12.344;2023-04-24T02:47:15;14.30;99.90
16485;DHT22;8353;47.856;12.344;2023-04-24T02:50:02;14.30;99.90
16485;DHT22;8353;47.856;12.344;2023-04-24T02:52:49;14.30;99.90
16485;DHT22;8353;47.856;12.344;2023-04-24T02:55:36;14.20;99.90
16485;DHT22;8353;47.856;12.344;2023-04-24T02:58:23;14.30;99.90
16485;DHT22;8353;47.856;12.344;2023-04-24T03:01:10;14.10;99.90
16485;DHT22;8353;47.856;12.344;2023-04-24T03:03:58;14.20;99.90
16485;DHT22;8353;47.856;12.344;2023-04-24T03:06:45;14.20;99.90
16485;DHT22;8353;47.856;12.344;2023-04-24T03:09:32;14.10;99.90
16485;DHT22;8353;47.856;12.344;2023-04-24T03:12:19;14.10;99.90
16485;DHT22;8353;47.856;12.344;2023-04-24T03:15:07;14.10;99.90
16485;DHT22;8353;47.856;12.344;2023-04-24T03:17:54;14.00;99.90
16485;DHT22;8353;47.856;12.344;2023-04-24T03:20:42;13.90;99.90
16485;DHT22;8353;47.856;12.344;2023-04-24T03:23:29;13.80;99.90
16485;DHT22;8353;47.856;12.344;2023-04-24T03:26:16;13.80;99.90
16485;DHT22;8353;47.856;12.344;2023-04-24T03:29:03;13.80;99.90
16485;DHT22;8353;47.856;12.344;2023-04-24T03:31:49;13.80;99.90
16485;DHT22;8353;47.856;12.344;2023-04-24T03:34:36;13.60;99.90
16485;DHT22;8353;47.856;12.344;2023-04-24T03:37:24;13.70;99.90
16485;DHT22;8353;47.856;12.344;2023-04-24T03:40:12;13.70;99.90
16485;DHT22;8353;47.856;12.344;2023-04-24T03:42:58;13.70;99.90
16485;DHT22;8353;47.856;12.344;2023-04-24T03:45:45;13.70;99.90
16485;DHT22;8353;47.856;12.344;2023-04-24T03:48:32;13.50;99.90
16485;DHT22;8353;47.856;12.344;2023-04-24T03:51:19;13.50;99.90
16485;DHT22;8353;47.856;12.344;2023-04-24T03:54:07;13.40;99.90
16485;DHT22;8353;47.856;12.344;2023-04-24T03:56:54;13.20;99.90
16485;DHT22;8353;47.856;12.344;2023-04-24T03:59:41;13.00;99.90
16485;DHT22;8353;47.856;12.344;2023-04-24T04:02:28;13.00;99.90
16485;DHT22;8353;47.856;12.344;2023-04-24T04:05:15;13.00;99.90
16485;DHT22;8353;47.856;12.344;2023-04-24T04:08:02;13.10;99.90
16485;DHT22;8353;47.856;12.344;2023-04-24T04:10:50;13.10;99.90
16485;DHT22;8353;47.856;12.344;2023-04-24T04:13:37;13.10;99.90
16485;DHT22;8353;47.856;12.344;2023-04-24T04:16:23;13.10;99.90
16485;DHT22;8353;47.856;12.344;2023-04-24T04:19:10;13.10;99.90
16485;DHT22;8353;47.856;12.344;2023-04-24T04:21:57;13.10;99.90
16485;DHT22;8353;47.856;12.344;2023-04-24T04:24:44;13.10;99.90
16485;DHT22;8353;47.856;12.344;2023-04-24T04:27:36;13.00;99.90
16485;DHT22;8353;47.856;12.344;2023-04-24T04:30:23;13.00;99.90
16485;DHT22;8353;47.856;12.344;2023-04-24T04:33:09;12.90;99.90
16485;DHT22;8353;47.856;12.344;2023-04-24T04:35:56;13.00;99.90
16485;DHT22;8353;47.856;12.344;2023-04-24T04:38:44;12.80;99.90
16485;DHT22;8353;47.856;12.344;2023-04-24T04:41:30;12.80;99.90
16485;DHT22;8353;47.856;12.344;2023-04-24T04:44:19;12.70;99.90
16485;DHT22;8353;47.856;12.344;2023-04-24T04:47:05;12.60;99.90
16485;DHT22;8353;47.856;12.344;2023-04-24T04:49:53;12.70;99.90
16485;DHT22;8353;47.856;12.344;2023-04-24T04:52:40;12.80;99.90
16485;DHT22;8353;47.856;12.344;2023-04-24T04:55:28;12.80;99.90
16485;DHT22;8353;47.856;12.344;2023-04-24T04:58:14;12.80;99.90
16485;DHT22;8353;47.856;12.344;2023-04-24T05:01:03;12.80;99.90
16485;DHT22;8353;47.856;12.344;2023-04-24T05:03:50;12.80;99.90
16485;DHT22;8353;47.856;12.344;2023-04-24T05:06:37;12.80;99.90
16485;DHT22;8353;47.856;12.344;2023-04-24T05:09:24;12.90;99.90
16485;DHT22;8353;47.856;12.344;2023-04-24T05:12:12;13.00;99.90
16485;DHT22;8353;47.856;12.344;2023-04-24T05:14:59;13.10;99.90
16485;DHT22;8353;47.856;12.344;2023-04-24T05:17:47;13.20;99.90
16485;DHT22;8353;47.856;12.344;2023-04-24T05:20:35;13.20;99.90
16485;DHT22;8353;47.856;12.344;2023-04-24T05:23:21;13.00;99.90
16485;DHT22;8353;47.856;12.344;2023-04-24T05:26:09;13.00;99.90
16485;DHT22;8353;47.856;12.344;2023-04-24T05:28:56;13.10;99.90
16485;DHT22;8353;47.856;12.344;2023-04-24T05:31:43;13.00;99.90
16485;DHT22;8353;47.856;12.344;2023-04-24T05:34:31;13.10;99.90
16485;DHT22;8353;47.856;12.344;2023-04-24T05:37:18;13.10;99.90
16485;DHT22;8353;47.856;12.344;2023-04-24T05:40:06;13.10;99.90
16485;DHT22;8353;47.856;12.344;2023-04-24T05:42:53;13.00;99.90
16485;DHT22;8353;47.856;12.344;2023-04-24T05:45:40;13.00;99.90
16485;DHT22;8353;47.856;12.344;2023-04-24T05:48:28;13.00;99.90
16485;DHT22;8353;47.856;12.344;2023-04-24T05:51:22;12.90;99.90
16485;DHT22;8353;47.856;12.344;2023-04-24T05:54:09;13.00;99.90
16485;DHT22;8353;47.856;12.344;2023-04-24T05:56:57;13.10;99.90
16485;DHT22;8353;47.856;12.344;2023-04-24T05:59:45;13.10;99.90
16485;DHT22;8353;47.856;12.344;2023-04-24T06:02:31;13.00;99.90
16485;DHT22;8353;47.856;12.344;2023-04-24T06:05:18;13.00;99.90
16485;DHT22;8353;47.856;12.344;2023-04-24T06:08:07;13.00;99.90
16485;DHT22;8353;47.856;12.344;2023-04-24T06:10:53;13.00;99.90
16485;DHT22;8353;47.856;12.344;2023-04-24T06:13:41;13.00;99.90
16485;DHT22;8353;47.856;12.344;2023-04-24T06:16:30;13.10;99.90
16485;DHT22;8353;47.856;12.344;2023-04-24T06:19:17;13.00;99.90
16485;DHT22;8353;47.856;12.344;2023-04-24T06:22:04;13.20;99.90
16485;DHT22;8353;47.856;12.344;2023-04-24T06:24:52;13.20;99.90
16485;DHT22;8353;47.856;12.344;2023-04-24T06:27:39;13.20;99.90
16485;DHT22;8353;47.856;12.344;2023-04-24T06:30:28;13.30;99.90
16485;DHT22;8353;47.856;12.344;2023-04-24T06:34:01;13.40;99.90
16485;DHT22;8353;47.856;12.344;2023-04-24T06:36:49;13.50;99.90
16485;DHT22;8353;47.856;12.344;2023-04-24T06:39:38;13.60;99.90
16485;DHT22;8353;47.856;12.344;2023-04-24T06:42:22;13.50;99.90
16485;DHT22;8353;47.856;12.344;2023-04-24T06:45:10;13.70;99.90
16485;DHT22;8353;47.856;12.344;2023-04-24T06:47:57;13.80;99.90
16485;DHT22;8353;47.856;12.344;2023-04-24T06:50:44;13.80;99.90
16485;DHT22;8353;47.856;12.344;2023-04-24T06:53:32;13.80;99.90
16485;DHT22;8353;47.856;12.344;2023-04-24T06:56:19;13.90;99.90
16485;DHT22;8353;47.856;12.344;2023-04-24T06:59:08;13.90;99.90
16485;DHT22;8353;47.856;12.344;2023-04-24T07:01:55;13.80;99.90
16485;DHT22;8353;47.856;12.344;2023-04-24T07:04:42;13.80;99.90
16485;DHT22;8353;47.856;12.344;2023-04-24T07:07:28;13.80;99.90
16485;DHT22;8353;47.856;12.344;2023-04-24T07:10:16;13.80;99.90
16485;DHT22;8353;47.856;12.344;2023-04-24T07:13:03;13.90;99.90
16485;DHT22;8353;47.856;12.344;2023-04-24T07:15:53;14.00;99.90
16485;DHT22;8353;47.856;12.344;2023-04-24T07:18:41;14.20;99.90
16485;DHT22;8353;47.856;12.344;2023-04-24T07:21:28;14.20;99.90
16485;DHT22;8353;47.856;12.344;2023-04-24T07:24:16;14.20;99.90
16485;DHT22;8353;47.856;12.344;2023-04-24T07:27:04;14.20;99.90
16485;DHT22;8353;47.856;12.344;2023-04-24T07:29:51;14.10;99.90
16485;DHT22;8353;47.856;12.344;2023-04-24T07:32:39;14.10;99.90
16485;DHT22;8353;47.856;12.344;2023-04-24T07:35:26;14.10;99.90
16485;DHT22;8353;47.856;12.344;2023-04-24T07:38:19;14.30;99.90
16485;DHT22;8353;47.856;12.344;2023-04-24T07:41:07;14.30;99.90
16485;DHT22;8353;47.856;12.344;2023-04-24T07:43:54;14.20;99.90
16485;DHT22;8353;47.856;12.344;2023-04-24T07:46:41;14.30;99.90
16485;DHT22;8353;47.856;12.344;2023-04-24T07:49:29;14.40;99.90
16485;DHT22;8353;47.856;12.344;2023-04-24T07:52:16;14.50;99.90
16485;DHT22;8353;47.856;12.344;2023-04-24T07:55:04;14.50;99.90
16485;DHT22;8353;47.856;12.344;2023-04-24T07:57:51;14.40;99.90
16485;DHT22;8353;47.856;12.344;2023-04-24T08:00:40;14.30;99.90
16485;DHT22;8353;47.856;12.344;2023-04-24T08:03:27;14.30;99.90
16485;DHT22;8353;47.856;12.344;2023-04-24T08:06:15;14.30;99.90
16485;DHT22;8353;47.856;12.344;2023-04-24T08:09:03;14.30;99.90
16485;DHT22;8353;47.856;12.344;2023-04-24T08:11:55;14.40;99.90
16485;DHT22;8353;47.856;12.344;2023-04-24T08:14:42;14.40;99.90
16485;DHT22;8353;47.856;12.344;2023-04-24T08:17:29;14.30;99.90
16485;DHT22;8353;47.856;12.344;2023-04-24T08:20:15;14.30;99.90
16485;DHT22;8353;47.856;12.344;2023-04-24T08:23:05;14.40;99.90
16485;DHT22;8353;47.856;12.344;2023-04-24T08:25:55;14.50;99.90
16485;DHT22;8353;47.856;12.344;2023-04-24T08:28:42;14.60;99.90
16485;DHT22;8353;47.856;12.344;2023-04-24T08:31:29;14.60;99.90
16485;DHT22;8353;47.856;12.344;2023-04-24T08:34:16;14.70;99.90
16485;DHT22;8353;47.856;12.344;2023-04-24T08:37:03;14.70;99.90
16485;DHT22;8353;47.856;12.344;2023-04-24T08:39:51;14.70;99.90
16485;DHT22;8353;47.856;12.344;2023-04-24T08:42:39;14.80;99.90
16485;DHT22;8353;47.856;12.344;2023-04-24T08:45:27;14.80;99.90
16485;DHT22;8353;47.856;12.344;2023-04-24T08:48:17;14.80;99.90
16485;DHT22;8353;47.856;12.344;2023-04-24T08:51:07;14.80;99.90
16485;DHT22;8353;47.856;12.344;2023-04-24T08:53:54;14.60;99.90
16485;DHT22;8353;47.856;12.344;2023-04-24T08:56:44;14.80;99.90
16485;DHT22;8353;47.856;12.344;2023-04-24T08:59:31;14.80;99.90
16485;DHT22;8353;47.856;12.344;2023-04-24T09:02:18;14.80;99.90
16485;DHT22;8353;47.856;12.344;2023-04-24T09:05:06;14.80;99.90
16485;DHT22;8353;47.856;12.344;2023-04-24T09:07:56;14.70;99.90
16485;DHT22;8353;47.856;12.344;2023-04-24T09:10:44;14.60;99.90
16485;DHT22;8353;47.856;12.344;2023-04-24T09:13:36;14.30;99.90
16485;DHT22;8353;47.856;12.344;2023-04-24T09:16:25;14.10;99.90
16485;DHT22;8353;47.856;12.344;2023-04-24T09:19:12;13.90;99.90
16485;DHT22;8353;47.856;12.344;2023-04-24T09:21:58;13.80;99.90
16485;DHT22;8353;47.856;12.344;2023-04-24T09:24:45;13.80;99.90
16485;DHT22;8353;47.856;12.344;2023-04-24T09:27:32;13.80;99.90
16485;DHT22;8353;47.856;12.344;2023-04-24T09:30:22;13.80;99.90
16485;DHT22;8353;47.856;12.344;2023-04-24T09:33:13;13.80;99.90
16485;DHT22;8353;47.856;12.344;2023-04-24T09:36:01;13.90;99.90
16485;DHT22;8353;47.856;12.344;2023-04-24T09:38:49;13.90;99.90
16485;DHT22;8353;47.856;12.344;2023-04-24T09:41:44;13.90;99.90
16485;DHT22;8353;47.856;12.344;2023-04-24T09:44:34;14.00;99.90
16485;DHT22;8353;47.856;12.344;2023-04-24T09:47:22;14.10;99.90
16485;DHT22;8353;47.856;12.344;2023-04-24T09:50:11;14.10;99.90
16485;DHT22;8353;47.856;12.344;2023-04-24T09:52:59;14.00;99.90
16485;DHT22;8353;47.856;12.344;2023-04-24T09:55:47;13.90;99.90
16485;DHT22;8353;47.856;12.344;2023-04-24T09:58:36;14.00;99.90
16485;DHT22;8353;47.856;12.344;2023-04-24T10:01:30;13.80;99.90
16485;DHT22;8353;47.856;12.344;2023-04-24T10:04:20;13.80;99.90
16485;DHT22;8353;47.856;12.344;2023-04-24T10:07:08;13.80;99.90
16485;DHT22;8353;47.856;12.344;2023-04-24T10:09:55;13.60;99.90
16485;DHT22;8353;47.856;12.344;2023-04-24T10:12:43;13.60;99.90
16485;DHT22;8353;47.856;12.344;2023-04-24T10:15:30;13.60;99.90
16485;DHT22;8353;47.856;12.344;2023-04-24T10:18:20;13.50;99.90
16485;DHT22;8353;47.856;12.344;2023-04-24T10:21:09;13.50;99.90
16485;DHT22;8353;47.856;12.344;2023-04-24T10:23:56;13.60;99.90
16485;DHT22;8353;47.856;12.344;2023-04-24T10:26:44;13.60;99.90
16485;DHT22;8353;47.856;12.344;2023-04-24T10:29:31;13.70;99.90
16485;DHT22;8353;47.856;12.344;2023-04-24T10:32:20;13.70;99.90
16485;DHT22;8353;47.856;12.344;2023-04-24T10:35:07;13.80;99.90
16485;DHT22;8353;47.856;12.344;2023-04-24T10:37:59;14.00;99.90
16485;DHT22;8353;47.856;12.344;2023-04-24T10:40:48;14.10;99.90
16485;DHT22;8353;47.856;12.344;2023-04-24T10:43:40;14.30;99.90
16485;DHT22;8353;47.856;12.344;2023-04-24T10:46:28;14.50;99.90
16485;DHT22;8353;47.856;12.344;2023-04-24T10:49:16;14.70;99.90
16485;DHT22;8353;47.856;12.344;2023-04-24T10:52:03;14.60;99.90
16485;DHT22;8353;47.856;12.344;2023-04-24T10:54:52;14.70;99.90
16485;DHT22;8353;47.856;12.344;2023-04-24T10:58:05;14.70;99.90
16485;DHT22;8353;47.856;12.344;2023-04-24T11:00:56;14.80;99.90
16485;DHT22;8353;47.856;12.344;2023-04-24T11:03:51;14.80;99.90
16485;DHT22;8353;47.856;12.344;2023-04-24T11:06:40;14.80;99.90
16485;DHT22;8353;47.856;12.344;2023-04-24T11:09:30;15.00;99.90
16485;DHT22;8353;47.856;12.344;2023-04-24T11:12:19;15.00;99.90
16485;DHT22;8353;47.856;12.344;2023-04-24T11:15:10;15.10;99.90
16485;DHT22;8353;47.856;12.344;2023-04-24T11:17:59;15.10;99.90
16485;DHT22;8353;47.856;12.344;2023-04-24T11:20:46;15.10;99.90
16485;DHT22;8353;47.856;12.344;2023-04-24T11:23:36;15.20;99.90
16485;DHT22;8353;47.856;12.344;2023-04-24T11:26:23;15.40;99.90
16485;DHT22;8353;47.856;12.344;2023-04-24T11:29:19;15.50;99.90
16485;DHT22;8353;47.856;12.344;2023-04-24T11:32:18;15.40;99.90
16485;DHT22;8353;47.856;12.344;2023-04-24T11:35:07;15.60;99.90
16485;DHT22;8353;47.856;12.344;2023-04-24T11:37:54;15.70;99.90
16485;DHT22;8353;47.856;12.344;2023-04-24T11:40:41;15.80;99.90
16485;DHT22;8353;47.856;12.344;2023-04-24T11:43:32;15.80;99.90
16485;DHT22;8353;47.856;12.344;2023-04-24T11:46:23;15.70;99.90
16485;DHT22;8353;47.856;12.344;2023-04-24T11:49:12;15.80;99.90
16485;DHT22;8353;47.856;12.344;2023-04-24T11:51:59;15.70;99.90
16485;DHT22;8353;47.856;12.344;2023-04-24T11:54:48;15.70;99.90
16485;DHT22;8353;47.856;12.344;2023-04-24T11:57:35;15.60;99.90
16485;DHT22;8353;47.856;12.344;2023-04-24T12:00:24;15.70;99.90
16485;DHT22;8353;47.856;12.344;2023-04-24T12:03:13;15.60;99.90
16485;DHT22;8353;47.856;12.344;2023-04-24T12:06:07;15.50;99.90
16485;DHT22;8353;47.856;12.344;2023-04-24T12:08:56;15.40;99.90
16485;DHT22;8353;47.856;12.344;2023-04-24T12:11:52;15.60;99.90
16485;DHT22;8353;47.856;12.344;2023-04-24T12:14:44;15.70;99.90
16485;DHT22;8353;47.856;12.344;2023-04-24T12:17:32;15.70;99.90
16485;DHT22;8353;47.856;12.344;2023-04-24T12:20:26;15.70;99.90
16485;DHT22;8353;47.856;12.344;2023-04-24T12:23:13;15.70;99.90
16485;DHT22;8353;47.856;12.344;2023-04-24T12:26:00;15.50;99.90
16485;DHT22;8353;47.856;12.344;2023-04-24T12:28:49;15.40;99.90
16485;DHT22;8353;47.856;12.344;2023-04-24T12:31:36;15.20;99.90
16485;DHT22;8353;47.856;12.344;2023-04-24T12:34:24;14.50;99.90
16485;DHT22;8353;47.856;12.344;2023-04-24T12:37:13;14.10;99.90
16485;DHT22;8353;47.856;12.344;2023-04-24T12:40:01;13.90;99.90
16485;DHT22;8353;47.856;12.344;2023-04-24T12:42:51;13.80;99.90
16485;DHT22;8353;47.856;12.344;2023-04-24T12:45:38;13.80;99.90
16485;DHT22;8353;47.856;12.344;2023-04-24T12:48:25;14.00;99.90
16485;DHT22;8353;47.856;12.344;2023-04-24T12:51:12;14.30;99.90
16485;DHT22;8353;47.856;12.344;2023-04-24T12:54:00;14.50;99.90
16485;DHT22;8353;47.856;12.344;2023-04-24T12:56:47;14.80;99.90
16485;DHT22;8353;47.856;12.344;2023-04-24T12:59:34;15.10;99.90
16485;DHT22;8353;47.856;12.344;2023-04-24T13:02:21;15.30;99.90
16485;DHT22;8353;47.856;12.344;2023-04-24T13:05:08;15.40;99.90
16485;DHT22;8353;47.856;12.344;2023-04-24T13:07:57;15.50;99.90
16485;DHT22;8353;47.856;12.344;2023-04-24T13:10:45;15.60;99.90
16485;DHT22;8353;47.856;12.344;2023-04-24T13:13:32;15.70;99.90
16485;DHT22;8353;47.856;12.344;2023-04-24T13:16:19;15.80;99.90
16485;DHT22;8353;47.856;12.344;2023-04-24T13:19:06;15.90;99.90
16485;DHT22;8353;47.856;12.344;2023-04-24T13:21:53;15.90;99.90
16485;DHT22;8353;47.856;12.344;2023-04-24T13:24:40;15.70;99.90
16485;DHT22;8353;47.856;12.344;2023-04-24T13:27:29;15.90;99.90
16485;DHT22;8353;47.856;12.344;2023-04-24T13:30:16;15.80;99.90
16485;DHT22;8353;47.856;12.344;2023-04-24T13:33:03;15.40;99.90
16485;DHT22;8353;47.856;12.344;2023-04-24T13:35:50;15.10;99.90
16485;DHT22;8353;47.856;12.344;2023-04-24T13:38:37;15.00;99.90
16485;DHT22;8353;47.856;12.344;2023-04-24T13:41:29;15.00;99.90
16485;DHT22;8353;47.856;12.344;2023-04-24T13:44:18;14.90;99.90
16485;DHT22;8353;47.856;12.344;2023-04-24T13:47:05;15.00;99.90
16485;DHT22;8353;47.856;12.344;2023-04-24T13:49:52;15.20;99.90
16485;DHT22;8353;47.856;12.344;2023-04-24T13:52:39;15.20;99.90
16485;DHT22;8353;47.856;12.344;2023-04-24T13:55:26;15.10;99.90
16485;DHT22;8353;47.856;12.344;2023-04-24T13:58:13;15.10;99.90
16485;DHT22;8353;47.856;12.344;2023-04-24T14:01:04;15.10;99.90
16485;DHT22;8353;47.856;12.344;2023-04-24T14:03:53;15.00;99.90
16485;DHT22;8353;47.856;12.344;2023-04-24T14:06:40;14.80;99.90
16485;DHT22;8353;47.856;12.344;2023-04-24T14:09:27;14.60;99.90
16485;DHT22;8353;47.856;12.344;2023-04-24T14:12:14;14.50;99.90
16485;DHT22;8353;47.856;12.344;2023-04-24T14:15:04;14.60;99.90
16485;DHT22;8353;47.856;12.344;2023-04-24T14:17:53;14.70;99.90
16485;DHT22;8353;47.856;12.344;2023-04-24T14:20:41;14.60;99.90
16485;DHT22;8353;47.856;12.344;2023-04-24T14:23:28;14.60;99.90
16485;DHT22;8353;47.856;12.344;2023-04-24T14:26:15;14.60;99.90
16485;DHT22;8353;47.856;12.344;2023-04-24T14:29:02;14.50;99.90
16485;DHT22;8353;47.856;12.344;2023-04-24T14:31:50;14.50;99.90
16485;DHT22;8353;47.856;12.344;2023-04-24T14:34:41;14.50;99.90
16485;DHT22;8353;47.856;12.344;2023-04-24T14:37:52;14.50;99.90
16485;DHT22;8353;47.856;12.344;2023-04-24T14:40:39;14.60;99.90
16485;DHT22;8353;47.856;12.344;2023-04-24T14:43:26;14.60;99.90
16485;DHT22;8353;47.856;12.344;2023-04-24T14:46:13;14.60;99.90
16485;DHT22;8353;47.856;12.344;2023-04-24T14:49:00;14.80;99.90
16485;DHT22;8353;47.856;12.344;2023-04-24T14:51:48;14.80;99.90
16485;DHT22;8353;47.856;12.344;2023-04-24T14:54:35;15.00;99.90
16485;DHT22;8353;47.856;12.344;2023-04-24T14:57:22;15.10;99.90
16485;DHT22;8353;47.856;12.344;2023-04-24T15:00:10;15.20;99.90
16485;DHT22;8353;47.856;12.344;2023-04-24T15:02:57;15.00;99.90
16485;DHT22;8353;47.856;12.344;2023-04-24T15:05:44;14.80;99.90
16485;DHT22;8353;47.856;12.344;2023-04-24T15:08:34;14.90;99.90
16485;DHT22;8353;47.856;12.344;2023-04-24T15:11:21;15.00;99.90
16485;DHT22;8353;47.856;12.344;2023-04-24T15:14:08;15.00;99.90
16485;DHT22;8353;47.856;12.344;2023-04-24T15:16:57;15.10;99.90
16485;DHT22;8353;47.856;12.344;2023-04-24T15:19:44;15.10;99.90
16485;DHT22;8353;47.856;12.344;2023-04-24T15:22:31;15.30;99.90
16485;DHT22;8353;47.856;12.344;2023-04-24T15:25:28;15.20;99.90
16485;DHT22;8353;47.856;12.344;2023-04-24T15:28:21;15.00;99.90
16485;DHT22;8353;47.856;12.344;2023-04-24T15:31:08;15.00;99.90
16485;DHT22;8353;47.856;12.344;2023-04-24T15:33:55;15.00;99.90
16485;DHT22;8353;47.856;12.344;2023-04-24T15:36:42;15.00;99.90
16485;DHT22;8353;47.856;12.344;2023-04-24T15:39:29;15.00;99.90
16485;DHT22;8353;47.856;12.344;2023-04-24T15:42:17;15.20;99.90
16485;DHT22;8353;47.856;12.344;2023-04-24T15:45:04;15.30;99.90
16485;DHT22;8353;47.856;12.344;2023-04-24T15:47:51;15.40;99.90
16485;DHT22;8353;47.856;12.344;2023-04-24T15:50:38;15.70;99.90
16485;DHT22;8353;47.856;12.344;2023-04-24T15:53:26;15.90;99.90
16485;DHT22;8353;47.856;12.344;2023-04-24T15:56:13;16.00;99.90
16485;DHT22;8353;47.856;12.344;2023-04-24T15:59:01;16.10;99.90
16485;DHT22;8353;47.856;12.344;2023-04-24T16:01:49;16.10;99.90
16485;DHT22;8353;47.856;12.344;2023-04-24T16:04:36;16.10;99.90
16485;DHT22;8353;47.856;12.344;2023-04-24T16:07:23;16.10;99.90
16485;DHT22;8353;47.856;12.344;2023-04-24T16:10:10;16.20;99.90
16485;DHT22;8353;47.856;12.344;2023-04-24T16:12:59;16.20;99.90
16485;DHT22;8353;47.856;12.344;2023-04-24T16:15:49;16.10;99.90
16485;DHT22;8353;47.856;12.344;2023-04-24T16:18:36;16.00;99.90
16485;DHT22;8353;47.856;12.344;2023-04-24T16:21:23;16.10;99.90
16485;DHT22;8353;47.856;12.344;2023-04-24T16:24:10;16.20;99.90
16485;DHT22;8353;47.856;12.344;2023-04-24T16:26:57;16.10;99.90
16485;DHT22;8353;47.856;12.344;2023-04-24T16:29:44;15.80;99.90
16485;DHT22;8353;47.856;12.344;2023-04-24T16:32:32;15.70;99.90
16485;DHT22;8353;47.856;12.344;2023-04-24T16:35:19;15.60;99.90
16485;DHT22;8353;47.856;12.344;2023-04-24T16:38:06;15.50;99.90
16485;DHT22;8353;47.856;12.344;2023-04-24T16:40:53;15.40;99.90
16485;DHT22;8353;47.856;12.344;2023-04-24T16:43:39;15.40;99.90
16485;DHT22;8353;47.856;12.344;2023-04-24T16:46:26;15.40;99.90
16485;DHT22;8353;47.856;12.344;2023-04-24T16:49:14;15.70;99.90
16485;DHT22;8353;47.856;12.344;2023-04-24T16:52:02;15.80;99.90
16485;DHT22;8353;47.856;12.344;2023-04-24T16:54:49;15.90;99.90
16485;DHT22;8353;47.856;12.344;2023-04-24T16:57:37;16.00;99.90
16485;DHT22;8353;47.856;12.344;2023-04-24T17:00:24;16.00;99.90
16485;DHT22;8353;47.856;12.344;2023-04-24T17:03:11;15.80;99.90
16485;DHT22;8353;47.856;12.344;2023-04-24T17:06:04;15.80;99.90
16485;DHT22;8353;47.856;12.344;2023-04-24T17:08:51;15.80;99.90
16485;DHT22;8353;47.856;12.344;2023-04-24T17:11:38;15.80;99.90
16485;DHT22;8353;47.856;12.344;2023-04-24T17:14:24;15.80;99.90
16485;DHT22;8353;47.856;12.344;2023-04-24T17:17:12;15.60;99.90
16485;DHT22;8353;47.856;12.344;2023-04-24T17:19:59;15.40;99.90
16485;DHT22;8353;47.856;12.344;2023-04-24T17:22:48;15.40;99.90
16485;DHT22;8353;47.856;12.344;2023-04-24T17:25:35;15.30;99.90
16485;DHT22;8353;47.856;12.344;2023-04-24T17:28:24;15.30;99.90
16485;DHT22;8353;47.856;12.344;2023-04-24T17:31:12;15.30;99.90
16485;DHT22;8353;47.856;12.344;2023-04-24T17:33:59;15.10;99.90
16485;DHT22;8353;47.856;12.344;2023-04-24T17:36:46;15.10;99.90
16485;DHT22;8353;47.856;12.344;2023-04-24T17:39:34;15.10;99.90
16485;DHT22;8353;47.856;12.344;2023-04-24T17:42:21;15.10;99.90